Time;durP1;ratioP1;P1;durP2;ratioP2;P2;SDS_P1;SDS_P2;PMS_P1;PMS_P2;Temp;Humidity;BMP_temperature;BMP_pressure;BME280_temperature;BME280_humidity;BME280_pressure;Samples;Min_cycle;Max_cycle;Signal;HPM_P1;HPM_P2
2021/08/04 00:01:30;;;;;;;1.88;1.30;;;;;;;19.30;53.43;101318.25;5954827;29;21049;-54
2021/08/04 00:04:51;;;;;;;1.42;1.33;;;;;;;19.23;53.75;101312.31;5957335;29;20243;-51
2021/08/04 00:08:13;;;;;;;1.55;1.40;;;;;;;19.10;53.96;101308.44;5959628;29;20410;-53
2021/08/04 00:11:34;;;;;;;1.60;1.50;;;;;;;19.06;53.95;101305.03;5954674;29;20254;-50
2021/08/04 00:14:55;;;;;;;1.40;1.30;;;;;;;18.86;54.76;101301.34;5953833;29;20235;-53
2021/08/04 00:18:16;;;;;;;2.67;1.70;;;;;;;19.20;53.91;101307.16;5966081;29;20228;-51
2021/08/04 00:21:37;;;;;;;2.22;2.03;;;;;;;19.29;53.57;101304.19;5953157;29;20330;-55
2021/08/04 00:25:00;;;;;;;3.75;1.83;;;;;;;19.18;54.05;101311.63;5953258;29;20244;-55
2021/08/04 00:28:21;;;;;;;1.92;1.83;;;;;;;19.12;53.85;101310.09;5954274;29;20240;-54
2021/08/04 00:31:43;;;;;;;2.80;1.70;;;;;;;19.05;54.50;101309.44;5956907;29;20239;-54
2021/08/04 00:35:05;;;;;;;2.70;2.05;;;;;;;19.20;54.07;101315.09;5967060;29;20778;-53
2021/08/04 00:38:27;;;;;;;1.40;1.23;;;;;;;19.08;54.45;101309.34;5974438;29;20602;-51
2021/08/04 00:41:50;;;;;;;1.38;1.27;;;;;;;19.16;54.19;101305.56;5970516;29;20243;-52
2021/08/04 00:45:12;;;;;;;1.75;1.65;;;;;;;19.15;54.16;101298.53;5960052;29;20227;-55
2021/08/04 00:48:33;;;;;;;1.30;1.15;;;;;;;18.94;54.94;101301.06;5955669;29;20240;-55
2021/08/04 00:51:54;;;;;;;2.50;1.67;;;;;;;19.06;54.63;101300.63;5958043;29;20236;-48
2021/08/04 00:55:16;;;;;;;2.88;1.67;;;;;;;18.78;55.12;101300.69;5953744;29;20244;-54
2021/08/04 00:58:41;;;;;;;2.72;1.95;;;;;;;18.95;55.23;101310.69;5968324;29;20227;-53
2021/08/04 01:02:10;;;;;;;2.05;1.65;;;;;;;18.92;55.15;101308.19;5964835;29;20243;-55
2021/08/04 01:05:38;;;;;;;3.35;1.73;;;;;;;18.91;55.34;101314.38;5970491;29;20239;-53
2021/08/04 01:08:59;;;;;;;3.03;1.75;;;;;;;18.87;55.63;101318.03;5962680;29;20259;-54
2021/08/04 01:12:23;;;;;;;2.95;2.35;;;;;;;18.94;55.14;101311.63;5973398;29;20528;-53
2021/08/04 01:15:50;;;;;;;1.95;1.60;;;;;;;18.84;55.75;101315.50;5966313;29;20554;-54
2021/08/04 01:19:18;;;;;;;1.80;1.67;;;;;;;18.87;55.46;101320.66;5955543;29;20272;-55
2021/08/04 01:22:50;;;;;;;2.67;1.70;;;;;;;18.88;55.59;101314.47;5944578;29;20240;-55
2021/08/04 01:26:22;;;;;;;1.70;1.58;;;;;;;18.93;55.57;101314.31;5963120;29;20610;-52
2021/08/04 01:29:45;;;;;;;2.10;1.90;;;;;;;18.99;55.29;101312.31;5962439;29;20240;-55
2021/08/04 01:33:07;;;;;;;3.33;1.77;;;;;;;18.75;56.10;101318.44;5961989;29;20240;-55
2021/08/04 01:36:28;;;;;;;1.83;1.63;;;;;;;18.95;55.61;101310.69;5964237;29;20827;-50
2021/08/04 01:39:50;;;;;;;1.88;1.77;;;;;;;18.92;55.77;101316.09;5955261;29;20248;-54
2021/08/04 01:43:13;;;;;;;3.78;1.70;;;;;;;18.98;55.42;101307.97;5965231;29;20323;-55
2021/08/04 01:46:35;;;;;;;2.75;2.25;;;;;;;18.77;56.21;101311.34;5955304;29;20259;-52
2021/08/04 01:49:57;;;;;;;2.45;1.75;;;;;;;18.83;55.99;101319.06;5957955;29;20308;-49
2021/08/04 01:53:20;;;;;;;2.03;1.92;;;;;;;18.77;56.27;101314.84;5969093;29;22712;-51
2021/08/04 01:56:41;;;;;;;3.72;1.92;;;;;;;18.55;56.79;101312.06;5966632;29;20824;-53
2021/08/04 02:00:05;;;;;;;1.67;1.58;;;;;;;18.52;57.18;101317.47;5969355;29;20697;-51
2021/08/04 02:03:35;;;;;;;2.67;1.45;;;;;;;18.34;57.41;101320.72;5959101;29;20236;-51
2021/08/04 02:07:02;;;;;;;3.20;2.05;;;;;;;18.37;57.42;101320.63;5970794;29;20244;-52
2021/08/04 02:10:27;;;;;;;1.98;1.80;;;;;;;18.37;57.37;101321.47;5955084;29;20334;-55
2021/08/04 02:13:54;;;;;;;2.03;1.83;;;;;;;18.28;57.64;101319.13;5957120;29;20322;-51
2021/08/04 02:17:22;;;;;;;1.70;1.60;;;;;;;18.07;58.69;101318.09;5959991;29;20275;-54
2021/08/04 02:20:45;;;;;;;2.03;1.75;;;;;;;18.26;58.08;101308.66;5953333;29;20246;-54
2021/08/04 02:24:07;;;;;;;2.83;2.08;;;;;;;18.48;57.39;101311.44;5964572;29;20243;-50
2021/08/04 02:27:28;;;;;;;2.30;2.10;;;;;;;18.58;56.97;101309.34;5954049;29;20621;-51
2021/08/04 02:30:51;;;;;;;2.35;1.88;;;;;;;18.33;57.82;101306.66;5971002;29;20581;-52
2021/08/04 02:34:14;;;;;;;3.20;1.70;;;;;;;18.44;57.00;101301.03;5951916;29;20244;-50
2021/08/04 02:37:37;;;;;;;2.60;2.38;;;;;;;18.36;57.73;101297.78;5963750;29;20634;-53
2021/08/04 02:40:58;;;;;;;2.35;2.15;;;;;;;18.31;57.72;101295.31;5956647;29;20264;-51
2021/08/04 02:44:21;;;;;;;2.63;2.17;;;;;;;18.19;58.33;101293.94;5967787;29;20342;-52
2021/08/04 02:47:43;;;;;;;2.13;1.70;;;;;;;18.10;58.73;101308.28;5957624;29;20251;-50
2021/08/04 02:51:10;;;;;;;2.03;1.90;;;;;;;18.07;58.82;101302.28;5957025;29;20259;-55
2021/08/04 02:54:31;;;;;;;3.13;2.50;;;;;;;18.14;58.63;101297.66;5956514;29;20247;-53
2021/08/04 02:57:52;;;;;;;2.92;2.63;;;;;;;18.04;58.73;101303.22;5967788;29;20240;-55
2021/08/04 03:01:13;;;;;;;3.23;2.30;;;;;;;17.97;58.99;101306.09;5964919;29;21853;-47
2021/08/04 03:04:35;;;;;;;4.53;2.90;;;;;;;18.09;58.51;101306.56;5959193;29;20236;-54
2021/08/04 03:07:57;;;;;;;2.50;2.27;;;;;;;17.94;58.97;101303.56;5976793;29;20228;-49
2021/08/04 03:11:18;;;;;;;2.63;2.30;;;;;;;17.86;59.48;101311.72;5965207;29;22910;-53
2021/08/04 03:14:39;;;;;;;3.70;2.47;;;;;;;17.73;59.80;101308.56;5957941;29;20236;-51
2021/08/04 03:18:00;;;;;;;5.27;3.20;;;;;;;17.88;59.57;101300.22;5966996;29;20247;-52
2021/08/04 03:21:21;;;;;;;2.60;2.40;;;;;;;18.14;58.38;101309.03;5960895;29;20239;-53
2021/08/04 03:24:44;;;;;;;3.53;2.67;;;;;;;18.10;58.57;101310.06;5956770;29;20269;-52
2021/08/04 03:28:05;;;;;;;3.63;3.10;;;;;;;18.08;58.69;101307.47;5958790;29;20243;-51
2021/08/04 03:31:27;;;;;;;2.80;2.60;;;;;;;18.02;59.00;101312.94;5957968;29;20247;-48
2021/08/04 03:34:48;;;;;;;5.25;4.35;;;;;;;18.10;58.69;101310.91;5955017;29;20264;-52
2021/08/04 03:38:09;;;;;;;9.83;9.00;;;;;;;18.21;58.38;101313.22;5954109;29;20304;-53
2021/08/04 03:41:32;;;;;;;7.68;7.10;;;;;;;18.23;58.18;101303.47;5961350;29;20236;-48
2021/08/04 03:44:54;;;;;;;7.63;6.93;;;;;;;18.15;58.73;101305.50;5955282;29;20611;-49
2021/08/04 03:48:15;;;;;;;4.73;4.27;;;;;;;18.23;58.46;101303.47;5953919;29;20276;-53
2021/08/04 03:51:35;;;;;;;3.53;3.23;;;;;;;17.98;59.09;101313.09;5954289;29;20622;-52
2021/08/04 03:54:56;;;;;;;3.13;2.60;;;;;;;17.92;59.52;101324.69;5957795;29;20634;-56
2021/08/04 03:58:18;;;;;;;3.80;3.22;;;;;;;17.66;60.40;101317.56;5945666;29;20240;-55
2021/08/04 04:01:39;;;;;;;4.00;2.83;;;;;;;17.76;60.05;101323.41;5955843;29;20714;-54
2021/08/04 04:05:00;;;;;;;5.22;4.10;;;;;;;18.08;58.74;101322.44;5950252;29;20335;-52
2021/08/04 04:08:21;;;;;;;8.00;7.40;;;;;;;17.86;59.74;101319.63;5959931;29;20701;-49
2021/08/04 04:11:42;;;;;;;6.60;5.30;;;;;;;17.72;59.94;101325.31;5952039;29;20586;-52
2021/08/04 04:15:06;;;;;;;6.83;6.33;;;;;;;17.89;59.59;101325.66;5959682;29;20227;-52
2021/08/04 04:18:28;;;;;;;5.57;4.87;;;;;;;18.13;58.78;101325.78;5955851;29;20239;-51
2021/08/04 04:21:49;;;;;;;4.10;3.70;;;;;;;17.93;59.24;101330.81;5954536;29;20236;-48
2021/08/04 04:25:12;;;;;;;4.33;3.93;;;;;;;17.79;59.76;101329.44;5952587;29;20231;-51
2021/08/04 04:28:33;;;;;;;5.43;4.97;;;;;;;18.00;59.17;101327.09;5954034;29;21172;-51
2021/08/04 04:31:55;;;;;;;9.00;8.20;;;;;;;17.90;59.29;101335.28;5958095;29;20614;-51
2021/08/04 04:35:16;;;;;;;7.37;6.70;;;;;;;17.79;59.52;101334.72;5955620;29;20614;-50
2021/08/04 04:38:37;;;;;;;10.97;4.90;;;;;;;17.76;59.48;101332.19;5955108;29;20240;-54
2021/08/04 04:41:58;;;;;;;4.65;4.25;;;;;;;17.78;59.62;101332.16;5952690;29;20239;-52
2021/08/04 04:45:21;;;;;;;3.50;3.20;;;;;;;17.73;59.73;101339.31;5957587;29;20335;-52
2021/08/04 04:48:43;;;;;;;3.77;3.47;;;;;;;18.10;58.63;101346.97;5953335;29;20240;-51
2021/08/04 04:52:05;;;;;;;3.73;3.43;;;;;;;17.94;59.50;101345.75;5961907;29;20556;-50
2021/08/04 04:55:26;;;;;;;3.90;3.60;;;;;;;18.05;59.20;101347.13;5951183;29;20240;-53
2021/08/04 04:58:47;;;;;;;3.43;3.07;;;;;;;18.12;58.88;101346.91;5968999;29;20259;-53
2021/08/04 05:02:08;;;;;;;3.07;2.87;;;;;;;17.97;59.43;101349.16;5950159;29;20258;-53
2021/08/04 05:05:31;;;;;;;2.77;2.57;;;;;;;17.84;59.89;101351.28;5960761;29;20244;-55
2021/08/04 05:08:52;;;;;;;2.53;2.33;;;;;;;17.87;60.13;101353.84;5951891;29;20280;-53
2021/08/04 05:12:12;;;;;;;3.37;3.07;;;;;;;18.07;59.54;101352.34;5955013;29;20240;-54
2021/08/04 05:15:34;;;;;;;3.73;3.17;;;;;;;17.95;60.01;101353.59;5956300;29;20239;-51
2021/08/04 05:18:55;;;;;;;2.88;2.33;;;;;;;18.18;59.46;101359.91;5956360;29;20236;-53
2021/08/04 05:22:18;;;;;;;3.43;3.13;;;;;;;18.35;59.11;101359.34;5954356;29;20278;-55
2021/08/04 05:25:39;;;;;;;2.88;2.67;;;;;;;18.55;58.96;101356.91;5957685;29;20236;-53
2021/08/04 05:29:01;;;;;;;3.15;2.13;;;;;;;18.39;59.60;101360.97;5958088;29;20716;-56
2021/08/04 05:32:22;;;;;;;3.10;2.80;;;;;;;18.50;59.19;101358.84;5958413;29;20582;-49
2021/08/04 05:35:43;;;;;;;3.15;2.85;;;;;;;18.49;59.03;101351.84;5956457;29;20243;-51
2021/08/04 05:39:05;;;;;;;4.72;2.65;;;;;;;18.44;58.89;101353.78;5953652;29;20335;-53
2021/08/04 05:42:26;;;;;;;2.42;2.22;;;;;;;18.37;58.86;101365.44;5957115;29;22895;-52
2021/08/04 05:45:47;;;;;;;2.97;2.78;;;;;;;18.40;58.47;101362.72;5956774;29;20240;-52
2021/08/04 05:49:08;;;;;;;2.78;2.45;;;;;;;18.70;57.87;101359.00;5956450;29;20243;-51
2021/08/04 05:52:29;;;;;;;2.28;2.08;;;;;;;18.58;57.98;101362.09;5956896;29;20232;-51
2021/08/04 05:55:51;;;;;;;1.97;1.87;;;;;;;18.75;57.60;101363.28;5954614;29;20232;-53
2021/08/04 05:59:12;;;;;;;2.38;2.17;;;;;;;18.88;57.16;101360.22;5954527;29;20240;-54
2021/08/04 06:02:34;;;;;;;1.88;1.63;;;;;;;18.98;57.21;101360.75;5954513;29;20240;-55
2021/08/04 06:05:55;;;;;;;2.70;2.50;;;;;;;18.99;56.97;101356.31;5952459;29;20251;-50
2021/08/04 06:09:16;;;;;;;2.70;2.50;;;;;;;19.06;56.58;101356.03;5940630;29;20236;-53
2021/08/04 06:12:39;;;;;;;3.08;2.22;;;;;;;19.37;56.14;101367.28;5962838;29;20231;-55
2021/08/04 06:16:00;;;;;;;2.40;1.77;;;;;;;19.73;54.81;101370.31;5953950;29;20515;-55
2021/08/04 06:19:22;;;;;;;1.77;1.67;;;;;;;19.95;53.59;101370.34;5959352;29;20236;-54
2021/08/04 06:22:42;;;;;;;3.67;3.38;;;;;;;20.17;52.41;101364.22;5948503;29;20259;-56
2021/08/04 06:26:04;;;;;;;5.82;3.85;;;;;;;20.12;52.69;101368.81;5959139;29;20244;-51
2021/08/04 06:29:27;;;;;;;2.33;2.13;;;;;;;19.57;53.36;101377.09;5944804;29;20248;-51
2021/08/04 06:32:48;;;;;;;2.20;2.00;;;;;;;19.59;53.22;101373.47;5953425;29;20232;-55
2021/08/04 06:36:09;;;;;;;4.95;4.07;;;;;;;19.80;53.26;101377.09;5961044;29;20252;-53
2021/08/04 06:39:30;;;;;;;2.03;1.88;;;;;;;19.61;53.90;101382.19;5952793;29;20248;-50
2021/08/04 06:42:51;;;;;;;3.03;2.30;;;;;;;19.79;53.25;101375.38;5961245;29;20248;-54
2021/08/04 06:46:15;;;;;;;5.35;4.95;;;;;;;20.02;52.85;101365.69;5959562;29;21790;-55
2021/08/04 06:49:36;;;;;;;5.25;4.30;;;;;;;19.71;53.57;101374.78;5956513;29;20240;-53
2021/08/04 06:52:58;;;;;;;5.20;3.97;;;;;;;19.88;53.48;101378.59;5960157;29;20258;-53
2021/08/04 06:56:18;;;;;;;3.13;2.78;;;;;;;20.00;52.81;101373.66;5954574;29;20235;-53
2021/08/04 06:59:39;;;;;;;3.13;2.78;;;;;;;20.12;53.22;101372.31;5953138;29;20323;-55
2021/08/04 07:03:02;;;;;;;2.55;2.35;;;;;;;20.12;52.95;101369.66;5953758;29;20256;-51
2021/08/04 07:06:22;;;;;;;3.67;3.08;;;;;;;20.35;52.51;101373.16;5944711;29;20868;-55
2021/08/04 07:09:44;;;;;;;2.40;2.20;;;;;;;20.24;52.55;101393.00;5960772;29;20331;-52
2021/08/04 07:13:05;;;;;;;2.42;1.75;;;;;;;20.44;51.82;101383.38;5961073;29;20327;-56
2021/08/04 07:16:26;;;;;;;2.25;1.90;;;;;;;20.37;52.34;101381.91;5951828;29;20618;-55
2021/08/04 07:19:48;;;;;;;3.15;1.75;;;;;;;20.42;52.40;101377.28;5946957;29;22698;-56
2021/08/04 07:23:09;;;;;;;2.85;1.95;;;;;;;20.46;52.25;101389.47;5952403;29;20235;-54
2021/08/04 07:26:30;;;;;;;4.28;2.05;;;;;;;20.82;52.71;101391.50;5948565;29;20243;-58
2021/08/04 07:29:51;;;;;;;1.73;1.63;;;;;;;21.09;51.94;101393.88;5946653;29;20239;-55
2021/08/04 07:33:12;;;;;;;2.47;1.50;;;;;;;20.90;51.78;101392.06;5950612;29;20243;-56
2021/08/04 07:36:34;;;;;;;5.07;2.08;;;;;;;21.14;52.11;101395.41;5945023;29;20248;-57
2021/08/04 07:39:56;;;;;;;1.42;1.10;;;;;;;20.98;51.58;101400.50;5942595;29;20244;-57
2021/08/04 07:43:17;;;;;;;2.33;1.60;;;;;;;20.99;51.75;101401.38;5949633;29;20237;-54
2021/08/04 07:46:39;;;;;;;4.45;1.60;;;;;;;20.93;52.25;101399.00;5956176;29;20239;-57
2021/08/04 07:50:00;;;;;;;1.90;1.80;;;;;;;20.96;52.19;101402.38;5961545;29;20241;-58
2021/08/04 07:53:22;;;;;;;3.03;2.13;;;;;;;20.88;51.83;101403.63;5947009;29;20247;-57
2021/08/04 07:56:43;;;;;;;2.65;1.67;;;;;;;20.92;52.63;101411.38;5958155;29;20236;-57
2021/08/04 08:00:06;;;;;;;1.80;1.25;;;;;;;20.93;52.86;101407.78;5969264;29;20240;-60
2021/08/04 08:03:32;;;;;;;2.65;1.67;;;;;;;20.94;52.66;101401.59;5962969;29;20247;-58
2021/08/04 08:06:53;;;;;;;3.42;1.40;;;;;;;20.95;52.59;101411.22;5966753;29;20243;-57
2021/08/04 08:10:15;;;;;;;1.33;1.23;;;;;;;20.93;52.75;101397.19;5967770;29;20245;-58
2021/08/04 08:13:37;;;;;;;7.20;6.55;;;;;;;21.11;52.46;101402.63;5971743;29;20267;-58
2021/08/04 08:16:57;;;;;;;9.02;8.27;;;;;;;20.95;52.83;101402.44;5978151;29;20239;-58
2021/08/04 08:20:19;;;;;;;3.65;3.25;;;;;;;21.04;54.52;101399.38;5986151;29;22261;-59
2021/08/04 08:23:40;;;;;;;3.83;2.05;;;;;;;20.94;53.40;101398.94;5980282;29;20391;-56
2021/08/04 08:27:02;;;;;;;1.88;1.67;;;;;;;21.04;52.55;101404.69;5977163;29;20670;-57
2021/08/04 08:30:24;;;;;;;4.18;2.00;;;;;;;21.06;52.87;101400.19;5975928;29;20243;-58
2021/08/04 08:33:45;;;;;;;2.40;1.90;;;;;;;21.12;52.80;101399.91;5975945;29;20240;-57
2021/08/04 08:37:07;;;;;;;2.45;1.80;;;;;;;21.02;52.89;101399.44;5975409;29;20258;-56
2021/08/04 08:40:28;;;;;;;3.03;1.88;;;;;;;21.02;53.34;101402.09;5973706;29;20244;-56
2021/08/04 08:43:51;;;;;;;1.98;1.35;;;;;;;20.90;55.29;101394.69;5975985;29;20240;-56
2021/08/04 08:47:13;;;;;;;3.05;1.63;;;;;;;21.07;54.80;101396.59;5975974;29;20244;-57
2021/08/04 08:50:34;;;;;;;1.85;1.55;;;;;;;21.20;53.77;101402.22;5975312;29;20232;-57
2021/08/04 08:53:56;;;;;;;1.33;1.23;;;;;;;21.42;52.48;101400.34;5973871;29;20239;-58
2021/08/04 08:57:17;;;;;;;2.50;1.55;;;;;;;21.18;54.04;101402.28;5970892;29;20331;-57
2021/08/04 09:00:39;;;;;;;2.20;1.50;;;;;;;21.40;52.71;101396.91;5965835;29;20240;-57
2021/08/04 09:04:03;;;;;;;1.90;1.73;;;;;;;21.36;52.34;101400.59;5968695;29;20240;-59
2021/08/04 09:07:31;;;;;;;2.25;1.90;;;;;;;21.52;52.78;101405.22;5976211;29;20338;-56
2021/08/04 09:10:52;;;;;;;1.85;1.60;;;;;;;21.48;52.48;101401.00;5970582;29;20620;-57
2021/08/04 09:14:14;;;;;;;3.00;2.00;;;;;;;21.69;53.17;101401.81;5973697;29;20240;-56
2021/08/04 09:17:36;;;;;;;5.47;3.83;;;;;;;22.03;52.77;101412.56;5965187;29;20232;-62
2021/08/04 09:20:57;;;;;;;6.53;3.65;;;;;;;22.05;52.24;101409.84;5966001;29;20228;-60
2021/08/04 09:24:18;;;;;;;2.72;2.10;;;;;;;22.35;51.30;101406.66;5967817;29;20232;-62
2021/08/04 09:27:52;;;;;;;4.47;4.07;;;;;;;22.39;51.00;101408.22;5978175;29;20585;-59
2021/08/04 09:31:14;;;;;;;5.57;2.78;;;;;;;22.28;51.56;101407.91;5979184;29;20244;-61
2021/08/04 09:34:38;;;;;;;3.38;2.70;;;;;;;22.46;51.25;101399.03;5969138;29;20236;-60
2021/08/04 09:38:06;;;;;;;5.20;2.58;;;;;;;22.27;51.08;101396.41;5968222;29;20240;-60
2021/08/04 09:41:27;;;;;;;2.83;2.22;;;;;;;22.69;49.91;101395.22;5969188;29;20630;-60
2021/08/04 09:44:53;;;;;;;3.55;2.33;;;;;;;22.83;49.17;101393.66;5969106;29;20235;-59
2021/08/04 09:48:16;;;;;;;3.72;2.05;;;;;;;23.17;49.67;101400.75;5968258;29;20337;-60
2021/08/04 09:51:38;;;;;;;2.80;1.83;;;;;;;23.10;49.30;101397.56;5968930;29;20543;-60
2021/08/04 09:55:11;;;;;;;3.67;1.63;;;;;;;23.27;48.29;101395.81;5972488;29;20264;-60
2021/08/04 09:58:32;;;;;;;4.47;1.63;;;;;;;23.51;47.92;101396.28;5965748;29;20239;-59
2021/08/04 10:01:53;;;;;;;2.53;1.73;;;;;;;22.69;48.14;101400.53;5966353;29;20656;-59
2021/08/04 10:05:16;;;;;;;2.22;2.03;;;;;;;22.52;48.86;101393.41;5970771;29;20247;-60
2021/08/04 10:08:39;;;;;;;2.67;1.75;;;;;;;23.10;47.89;101396.69;5975788;29;20231;-60
2021/08/04 10:12:01;;;;;;;2.53;1.35;;;;;;;23.24;47.34;101391.50;5967402;29;20643;-59
2021/08/04 10:15:21;;;;;;;2.05;1.75;;;;;;;23.22;46.95;101385.41;5983373;29;20224;-60
2021/08/04 10:18:42;;;;;;;2.00;1.90;;;;;;;23.14;47.29;101384.97;5979116;29;20247;-60
2021/08/04 10:22:04;;;;;;;4.82;2.30;;;;;;;22.93;46.65;101382.47;5975434;29;20327;-60
2021/08/04 10:25:27;;;;;;;2.40;1.80;;;;;;;23.41;45.94;101382.63;5979277;29;20236;-58
2021/08/04 10:28:52;;;;;;;1.90;1.75;;;;;;;23.02;46.14;101381.13;5978535;29;20244;-59
2021/08/04 10:32:13;;;;;;;5.65;5.05;;;;;;;22.80;46.88;101381.41;5978426;29;20244;-60
2021/08/04 10:35:36;;;;;;;5.00;2.50;;;;;;;22.66;46.68;101383.88;5975458;29;20240;-59
2021/08/04 10:39:00;;;;;;;3.67;3.38;;;;;;;23.04;46.57;101381.09;5976212;29;20232;-60
2021/08/04 10:42:38;;;;;;;2.42;2.22;;;;;;;22.80;46.31;101384.06;5964349;29;20236;-59
2021/08/04 10:45:59;;;;;;;2.38;1.90;;;;;;;23.15;45.96;101378.75;5978407;29;20243;-60
2021/08/04 10:49:30;;;;;;;2.15;1.70;;;;;;;23.27;45.91;101382.53;5982231;29;20228;-60
2021/08/04 10:53:05;;;;;;;2.50;2.00;;;;;;;23.09;46.70;101381.69;5977013;29;20239;-60
2021/08/04 10:56:48;;;;;;;3.03;2.83;;;;;;;23.15;46.61;101378.75;5973496;29;20235;-60
2021/08/04 11:00:23;;;;;;;3.60;1.80;;;;;;;23.04;46.29;101371.31;5985343;29;20339;-60
2021/08/04 11:03:48;;;;;;;5.95;4.32;;;;;;;23.35;45.81;101365.22;5979346;29;20243;-59
2021/08/04 11:07:13;;;;;;;4.60;4.22;;;;;;;23.61;45.37;101373.56;5979459;29;20350;-59
2021/08/04 11:10:38;;;;;;;2.60;2.22;;;;;;;23.93;44.46;101355.00;5977818;29;20232;-60
2021/08/04 11:13:59;;;;;;;3.40;2.72;;;;;;;24.13;43.92;101364.50;5980618;29;20236;-58
2021/08/04 11:17:22;;;;;;;3.63;3.35;;;;;;;24.45;42.46;101365.28;5982449;29;20232;-60
2021/08/04 11:21:09;;;;;;;2.78;2.58;;;;;;;24.24;43.94;101353.25;5980402;29;20334;-60
2021/08/04 11:24:54;;;;;;;4.15;3.85;;;;;;;24.45;43.11;101354.66;5979411;29;20244;-59
2021/08/04 11:28:20;;;;;;;4.53;4.15;;;;;;;24.59;43.70;101355.69;5982825;29;20228;-59
2021/08/04 11:31:42;;;;;;;2.67;2.45;;;;;;;24.55;42.97;101349.66;5960881;29;20247;-58
2021/08/04 11:35:16;;;;;;;1.92;1.52;;;;;;;24.96;42.28;101347.16;5974995;29;20240;-59
2021/08/04 11:38:40;;;;;;;1.90;1.77;;;;;;;24.73;42.97;101348.56;5979885;29;20336;-60
2021/08/04 11:42:05;;;;;;;2.95;2.63;;;;;;;24.70;41.94;101347.91;5986167;29;20658;-59
2021/08/04 11:45:26;;;;;;;2.67;2.47;;;;;;;24.63;42.42;101342.06;5982175;29;20240;-59
2021/08/04 11:48:52;;;;;;;3.13;2.13;;;;;;;25.06;42.01;101341.25;5974375;29;20276;-59
2021/08/04 11:52:16;;;;;;;2.33;1.80;;;;;;;24.84;42.04;101345.25;5977413;29;20247;-60
2021/08/04 11:55:37;;;;;;;3.28;1.88;;;;;;;25.18;41.49;101345.81;5982523;29;20248;-59
2021/08/04 11:59:05;;;;;;;2.05;1.63;;;;;;;24.87;42.50;101342.41;5974849;29;20239;-59
2021/08/04 12:02:31;;;;;;;1.88;1.77;;;;;;;25.42;41.28;101345.28;5981601;29;20323;-59
2021/08/04 12:06:16;;;;;;;5.43;5.03;;;;;;;25.45;40.58;101350.41;5982502;29;20508;-60
2021/08/04 12:09:39;;;;;;;2.55;2.20;;;;;;;25.78;40.14;101341.22;5981302;29;20239;-60
2021/08/04 12:13:00;;;;;;;3.10;1.63;;;;;;;26.32;39.42;101338.53;5974967;29;20244;-60
2021/08/04 12:16:21;;;;;;;1.70;1.60;;;;;;;26.74;38.81;101330.44;5984528;29;20258;-60
2021/08/04 12:19:44;;;;;;;1.70;1.45;;;;;;;27.30;37.74;101326.44;5979268;29;20243;-60
2021/08/04 12:23:07;;;;;;;2.45;1.77;;;;;;;28.01;36.19;101323.13;5981542;29;20236;-59
2021/08/04 12:26:43;;;;;;;1.50;1.40;;;;;;;28.04;35.19;101322.91;5980381;29;20232;-60
2021/08/04 12:30:17;;;;;;;1.52;1.42;;;;;;;28.55;34.52;101319.06;5965174;29;20243;-59
2021/08/04 12:33:45;;;;;;;1.95;1.40;;;;;;;29.72;32.24;101312.47;5980780;29;20236;-60
2021/08/04 12:37:06;;;;;;;1.33;1.20;;;;;;;31.10;30.17;101306.16;5975072;29;26487;-60
2021/08/04 12:40:28;;;;;;;2.83;1.95;;;;;;;32.63;27.46;101300.31;5980208;29;20330;-60
2021/08/04 12:43:54;;;;;;;1.27;1.17;;;;;;;33.78;25.88;101302.63;5977386;29;20237;-61
2021/08/04 12:47:16;;;;;;;1.58;1.48;;;;;;;35.91;23.01;101302.13;5982816;29;20508;-60
2021/08/04 12:50:53;;;;;;;3.35;1.70;;;;;;;37.41;19.96;101290.56;5979897;29;20232;-61
2021/08/04 12:54:14;;;;;;;2.80;1.50;;;;;;;37.91;20.71;101292.97;5969269;29;20239;-61
2021/08/04 12:57:35;;;;;;;2.72;2.28;;;;;;;38.49;19.76;101283.25;5980519;29;20224;-59
2021/08/04 13:00:57;;;;;;;1.90;1.63;;;;;;;39.07;19.17;101285.34;5979078;29;20859;-60
2021/08/04 13:04:19;;;;;;;2.90;1.65;;;;;;;33.82;24.47;101279.69;5991633;29;20236;-60
2021/08/04 13:07:44;;;;;;;1.63;1.20;;;;;;;34.27;24.09;101276.03;5981149;29;20267;-59
2021/08/04 13:11:05;;;;;;;2.35;1.30;;;;;;;35.22;22.69;101276.06;5974074;29;20240;-61
2021/08/04 13:14:26;;;;;;;3.38;1.73;;;;;;;37.01;21.44;101272.59;5977043;29;20244;-60
2021/08/04 13:17:54;;;;;;;5.60;1.70;;;;;;;32.62;26.04;101282.47;5989105;29;20239;-60
2021/08/04 13:21:15;;;;;;;3.33;1.58;;;;;;;29.80;30.30;101277.84;5983397;29;20239;-60
2021/08/04 13:24:38;;;;;;;3.83;2.03;;;;;;;27.87;34.20;101282.16;5983548;29;20251;-59
2021/08/04 13:28:02;;;;;;;1.92;1.30;;;;;;;27.32;35.72;101280.00;5974667;29;20610;-58
2021/08/04 13:31:24;;;;;;;1.73;1.30;;;;;;;26.80;36.69;101280.09;5978863;29;20255;-60
2021/08/04 13:34:46;;;;;;;1.70;1.60;;;;;;;26.61;37.27;101279.66;5979186;29;20267;-59
2021/08/04 13:38:06;;;;;;;1.88;1.45;;;;;;;26.41;36.93;101276.53;5973275;29;20293;-60
2021/08/04 13:41:27;;;;;;;7.30;6.65;;;;;;;26.17;38.31;101273.69;5982134;29;20239;-60
2021/08/04 13:44:48;;;;;;;4.30;2.38;;;;;;;25.77;39.05;101283.50;5974161;29;20327;-60
2021/08/04 13:48:09;;;;;;;2.58;2.38;;;;;;;25.39;39.42;101292.16;5992746;29;20236;-60
2021/08/04 13:51:32;;;;;;;2.30;1.80;;;;;;;23.88;41.98;101327.81;5982624;29;20247;-60
2021/08/04 13:54:53;;;;;;;2.67;2.15;;;;;;;22.13;46.88;101333.41;5988367;29;20239;-59
2021/08/04 13:58:14;;;;;;;2.05;1.83;;;;;;;20.38;52.14;101338.66;5982420;29;20244;-59
2021/08/04 14:01:35;;;;;;;2.72;2.53;;;;;;;20.29;53.67;101341.69;5988954;29;20240;-59
2021/08/04 14:04:56;;;;;;;2.17;1.98;;;;;;;19.91;55.44;101347.63;5973501;29;20335;-59
2021/08/04 14:08:19;;;;;;;4.60;2.55;;;;;;;19.62;58.79;101364.56;5978552;29;20509;-59
2021/08/04 14:11:39;;;;;;;13.43;3.42;;;;;;;19.38;62.73;101376.91;5983791;29;20246;-60
2021/08/04 14:15:00;;;;;;;5.57;2.60;;;;;;;18.61;66.55;101379.56;5971599;29;20331;-60
2021/08/04 14:18:21;;;;;;;5.45;2.88;;;;;;;18.26;68.75;101378.97;5985324;29;20243;-59
2021/08/04 14:21:42;;;;;;;4.85;3.17;;;;;;;18.63;67.53;101362.78;5983306;29;20640;-59
2021/08/04 14:25:06;;;;;;;5.53;3.25;;;;;;;18.55;67.75;101367.44;5963120;29;20244;-59
2021/08/04 14:28:27;;;;;;;3.53;3.22;;;;;;;18.10;70.22;101378.59;5982930;29;20236;-59
2021/08/04 14:31:48;;;;;;;3.33;2.85;;;;;;;18.92;66.60;101371.53;5985117;29;20235;-59
2021/08/04 14:35:11;;;;;;;4.10;3.70;;;;;;;19.47;64.66;101366.84;5977523;29;20255;-60
2021/08/04 14:38:32;;;;;;;3.90;3.50;;;;;;;20.09;62.78;101366.31;5982974;29;20236;-60
2021/08/04 14:41:54;;;;;;;4.53;3.75;;;;;;;20.22;61.83;101363.09;5982895;29;20235;-59
2021/08/04 14:45:15;;;;;;;4.32;3.28;;;;;;;20.68;60.83;101365.63;5978814;29;20385;-59
2021/08/04 14:48:35;;;;;;;4.22;3.83;;;;;;;20.79;60.68;101368.69;5982523;29;20266;-59
2021/08/04 14:51:56;;;;;;;5.30;4.55;;;;;;;20.90;60.40;101365.59;5975829;29;20228;-59
2021/08/04 14:55:17;;;;;;;6.60;4.78;;;;;;;20.98;60.70;101373.19;5987330;29;20310;-60
2021/08/04 14:58:39;;;;;;;4.40;3.40;;;;;;;21.15;59.80;101365.38;5972535;29;20318;-58
2021/08/04 15:02:00;;;;;;;3.08;2.53;;;;;;;20.86;60.35;101364.00;5981338;29;20240;-59
2021/08/04 15:05:21;;;;;;;3.40;3.10;;;;;;;20.43;62.20;101365.78;5984605;29;20248;-60
2021/08/04 15:08:42;;;;;;;3.30;3.00;;;;;;;20.41;62.62;101365.84;5984729;29;20251;-60
2021/08/04 15:12:04;;;;;;;3.38;3.08;;;;;;;20.47;62.70;101367.34;5975149;29;20347;-60
2021/08/04 15:15:26;;;;;;;5.70;3.50;;;;;;;20.50;62.41;101361.94;5982333;29;20240;-60
2021/08/04 15:18:47;;;;;;;2.72;2.50;;;;;;;20.24;62.67;101360.41;5980719;29;20233;-59
2021/08/04 15:22:08;;;;;;;4.50;3.00;;;;;;;20.23;62.48;101363.97;5981198;29;20252;-60
2021/08/04 15:25:29;;;;;;;2.90;2.60;;;;;;;20.23;62.64;101358.66;5982665;29;20239;-59
2021/08/04 15:28:49;;;;;;;5.10;3.72;;;;;;;19.93;63.68;101355.47;5982776;29;20778;-59
2021/08/04 15:32:11;;;;;;;3.70;2.75;;;;;;;20.03;63.48;101351.56;5989356;29;20534;-60
2021/08/04 15:35:34;;;;;;;5.32;3.33;;;;;;;20.13;63.51;101350.25;5976174;29;20271;-60
2021/08/04 15:38:55;;;;;;;3.78;2.70;;;;;;;19.93;64.02;101344.88;5975781;29;20288;-59
2021/08/04 15:42:15;;;;;;;3.38;2.10;;;;;;;19.85;64.29;101343.44;5978848;29;20512;-59